sensor_id;sensor_type;location;lat;lon;timestamp;P1;durP1;ratioP1;P2;durP2;ratioP2
48403;SDS011;34202;52.536;6.042;2023-08-08T00:02:51;5.30;;;3.30;;
48403;SDS011;34202;52.536;6.042;2023-08-08T00:07:51;4.60;;;3.20;;
48403;SDS011;34202;52.536;6.042;2023-08-08T00:12:52;5.50;;;3.20;;
48403;SDS011;34202;52.536;6.042;2023-08-08T00:17:52;6.10;;;3.40;;
48403;SDS011;34202;52.536;6.042;2023-08-08T00:22:52;6.70;;;4.00;;
48403;SDS011;34202;52.536;6.042;2023-08-08T00:27:53;8.00;;;3.40;;
48403;SDS011;34202;52.536;6.042;2023-08-08T00:32:53;6.50;;;3.40;;
48403;SDS011;34202;52.536;6.042;2023-08-08T00:37:53;9.50;;;4.10;;
48403;SDS011;34202;52.536;6.042;2023-08-08T00:42:54;9.40;;;4.40;;
48403;SDS011;34202;52.536;6.042;2023-08-08T00:47:54;7.50;;;3.90;;
48403;SDS011;34202;52.536;6.042;2023-08-08T00:52:55;6.60;;;3.70;;
48403;SDS011;34202;52.536;6.042;2023-08-08T00:57:55;7.90;;;4.40;;
48403;SDS011;34202;52.536;6.042;2023-08-08T01:02:56;8.70;;;3.90;;
48403;SDS011;34202;52.536;6.042;2023-08-08T01:07:57;7.10;;;3.60;;
48403;SDS011;34202;52.536;6.042;2023-08-08T01:13:05;9.70;;;4.10;;
48403;SDS011;34202;52.536;6.042;2023-08-08T01:18:10;9.50;;;5.20;;
48403;SDS011;34202;52.536;6.042;2023-08-08T01:23:16;7.50;;;5.10;;
48403;SDS011;34202;52.536;6.042;2023-08-08T01:28:21;11.30;;;6.40;;
48403;SDS011;34202;52.536;6.042;2023-08-08T01:33:22;14.70;;;5.20;;
48403;SDS011;34202;52.536;6.042;2023-08-08T01:38:30;7.00;;;4.80;;
48403;SDS011;34202;52.536;6.042;2023-08-08T01:43:34;18.10;;;5.00;;
48403;SDS011;34202;52.536;6.042;2023-08-08T01:48:37;7.70;;;4.50;;
48403;SDS011;34202;52.536;6.042;2023-08-08T01:53:38;17.40;;;5.20;;
48403;SDS011;34202;52.536;6.042;2023-08-08T01:58:38;6.90;;;4.70;;
48403;SDS011;34202;52.536;6.042;2023-08-08T02:03:38;11.70;;;5.40;;
48403;SDS011;34202;52.536;6.042;2023-08-08T02:08:39;17.00;;;5.10;;
48403;SDS011;34202;52.536;6.042;2023-08-08T02:13:39;10.10;;;4.80;;
48403;SDS011;34202;52.536;6.042;2023-08-08T02:18:40;8.80;;;4.30;;
48403;SDS011;34202;52.536;6.042;2023-08-08T02:23:41;7.60;;;4.30;;
48403;SDS011;34202;52.536;6.042;2023-08-08T02:28:41;10.10;;;5.40;;
48403;SDS011;34202;52.536;6.042;2023-08-08T02:33:42;10.30;;;5.00;;
48403;SDS011;34202;52.536;6.042;2023-08-08T02:38:42;10.10;;;4.20;;
48403;SDS011;34202;52.536;6.042;2023-08-08T02:43:43;8.70;;;5.20;;
48403;SDS011;34202;52.536;6.042;2023-08-08T02:48:43;10.10;;;4.00;;
48403;SDS011;34202;52.536;6.042;2023-08-08T02:53:43;6.40;;;3.90;;
48403;SDS011;34202;52.536;6.042;2023-08-08T02:58:44;9.90;;;4.10;;
48403;SDS011;34202;52.536;6.042;2023-08-08T03:03:44;7.70;;;3.40;;
48403;SDS011;34202;52.536;6.042;2023-08-08T03:08:44;7.40;;;3.60;;
48403;SDS011;34202;52.536;6.042;2023-08-08T03:13:45;5.80;;;3.30;;
48403;SDS011;34202;52.536;6.042;2023-08-08T03:18:45;7.80;;;3.70;;
48403;SDS011;34202;52.536;6.042;2023-08-08T03:23:45;6.70;;;3.30;;
48403;SDS011;34202;52.536;6.042;2023-08-08T03:28:46;8.80;;;3.80;;
48403;SDS011;34202;52.536;6.042;2023-08-08T03:33:50;5.10;;;2.60;;
48403;SDS011;34202;52.536;6.042;2023-08-08T03:38:50;4.60;;;2.30;;
48403;SDS011;34202;52.536;6.042;2023-08-08T03:43:51;4.10;;;2.50;;
48403;SDS011;34202;52.536;6.042;2023-08-08T03:48:51;4.50;;;2.20;;
48403;SDS011;34202;52.536;6.042;2023-08-08T03:53:52;4.70;;;2.20;;
48403;SDS011;34202;52.536;6.042;2023-08-08T03:58:52;7.60;;;2.10;;
48403;SDS011;34202;52.536;6.042;2023-08-08T04:03:52;5.40;;;2.10;;
48403;SDS011;34202;52.536;6.042;2023-08-08T04:08:53;4.30;;;1.70;;
48403;SDS011;34202;52.536;6.042;2023-08-08T04:13:53;4.90;;;2.10;;
48403;SDS011;34202;52.536;6.042;2023-08-08T04:18:54;5.80;;;1.60;;
48403;SDS011;34202;52.536;6.042;2023-08-08T04:23:54;4.90;;;1.80;;
48403;SDS011;34202;52.536;6.042;2023-08-08T04:28:54;5.20;;;2.00;;
48403;SDS011;34202;52.536;6.042;2023-08-08T04:33:55;7.20;;;2.70;;
48403;SDS011;34202;52.536;6.042;2023-08-08T04:38:58;6.60;;;2.30;;
48403;SDS011;34202;52.536;6.042;2023-08-08T04:43:59;5.90;;;1.40;;
48403;SDS011;34202;52.536;6.042;2023-08-08T04:48:59;1.90;;;1.60;;
48403;SDS011;34202;52.536;6.042;2023-08-08T04:53:59;8.30;;;2.30;;
48403;SDS011;34202;52.536;6.042;2023-08-08T04:59:00;3.80;;;1.90;;
48403;SDS011;34202;52.536;6.042;2023-08-08T05:04:00;6.90;;;2.40;;
48403;SDS011;34202;52.536;6.042;2023-08-08T05:09:00;2.60;;;1.80;;
48403;SDS011;34202;52.536;6.042;2023-08-08T05:14:01;7.10;;;1.80;;
48403;SDS011;34202;52.536;6.042;2023-08-08T05:19:02;5.80;;;1.60;;
48403;SDS011;34202;52.536;6.042;2023-08-08T05:24:02;5.10;;;1.80;;
48403;SDS011;34202;52.536;6.042;2023-08-08T05:29:03;2.70;;;1.80;;
48403;SDS011;34202;52.536;6.042;2023-08-08T05:34:03;4.90;;;1.90;;
48403;SDS011;34202;52.536;6.042;2023-08-08T05:39:04;5.20;;;1.70;;
48403;SDS011;34202;52.536;6.042;2023-08-08T05:44:06;3.40;;;1.40;;
48403;SDS011;34202;52.536;6.042;2023-08-08T05:49:07;6.60;;;1.90;;
48403;SDS011;34202;52.536;6.042;2023-08-08T05:54:07;10.80;;;1.70;;
48403;SDS011;34202;52.536;6.042;2023-08-08T05:59:08;4.70;;;1.40;;
48403;SDS011;34202;52.536;6.042;2023-08-08T06:04:08;6.60;;;1.40;;
48403;SDS011;34202;52.536;6.042;2023-08-08T06:09:09;7.30;;;1.50;;
48403;SDS011;34202;52.536;6.042;2023-08-08T06:14:10;6.60;;;1.30;;
48403;SDS011;34202;52.536;6.042;2023-08-08T06:19:10;4.10;;;1.40;;
48403;SDS011;34202;52.536;6.042;2023-08-08T06:24:12;7.80;;;1.50;;
48403;SDS011;34202;52.536;6.042;2023-08-08T06:29:12;7.20;;;1.70;;
48403;SDS011;34202;52.536;6.042;2023-08-08T06:34:14;7.30;;;1.40;;
48403;SDS011;34202;52.536;6.042;2023-08-08T06:39:15;12.60;;;2.10;;
48403;SDS011;34202;52.536;6.042;2023-08-08T06:44:15;13.60;;;1.80;;
48403;SDS011;34202;52.536;6.042;2023-08-08T06:49:16;5.80;;;1.20;;
48403;SDS011;34202;52.536;6.042;2023-08-08T06:54:16;14.90;;;2.40;;
48403;SDS011;34202;52.536;6.042;2023-08-08T06:59:16;14.00;;;2.10;;
48403;SDS011;34202;52.536;6.042;2023-08-08T07:04:17;21.60;;;2.50;;
48403;SDS011;34202;52.536;6.042;2023-08-08T07:09:18;18.70;;;2.10;;
48403;SDS011;34202;52.536;6.042;2023-08-08T07:14:18;5.80;;;1.70;;
48403;SDS011;34202;52.536;6.042;2023-08-08T07:19:18;7.20;;;1.90;;
48403;SDS011;34202;52.536;6.042;2023-08-08T07:24:19;21.90;;;3.80;;
48403;SDS011;34202;52.536;6.042;2023-08-08T07:29:20;18.90;;;2.90;;
48403;SDS011;34202;52.536;6.042;2023-08-08T07:34:21;10.40;;;2.00;;
48403;SDS011;34202;52.536;6.042;2023-08-08T07:39:21;8.20;;;1.40;;
48403;SDS011;34202;52.536;6.042;2023-08-08T07:44:21;24.70;;;3.50;;
48403;SDS011;34202;52.536;6.042;2023-08-08T07:49:22;5.50;;;1.50;;
48403;SDS011;34202;52.536;6.042;2023-08-08T07:54:22;16.60;;;2.20;;
48403;SDS011;34202;52.536;6.042;2023-08-08T07:59:22;7.50;;;1.30;;
48403;SDS011;34202;52.536;6.042;2023-08-08T08:04:24;14.70;;;3.60;;
48403;SDS011;34202;52.536;6.042;2023-08-08T08:09:24;8.70;;;1.90;;
48403;SDS011;34202;52.536;6.042;2023-08-08T08:14:24;7.40;;;1.90;;
48403;SDS011;34202;52.536;6.042;2023-08-08T08:19:25;8.60;;;1.70;;
48403;SDS011;34202;52.536;6.042;2023-08-08T08:24:25;6.70;;;1.20;;
48403;SDS011;34202;52.536;6.042;2023-08-08T08:29:25;4.40;;;1.60;;
48403;SDS011;34202;52.536;6.042;2023-08-08T08:34:26;11.20;;;2.40;;
48403;SDS011;34202;52.536;6.042;2023-08-08T08:39:26;9.60;;;1.60;;
48403;SDS011;34202;52.536;6.042;2023-08-08T08:44:26;12.80;;;2.20;;
48403;SDS011;34202;52.536;6.042;2023-08-08T08:49:30;24.50;;;4.40;;
48403;SDS011;34202;52.536;6.042;2023-08-08T08:54:32;20.50;;;2.80;;
48403;SDS011;34202;52.536;6.042;2023-08-08T08:59:33;16.80;;;2.70;;
48403;SDS011;34202;52.536;6.042;2023-08-08T09:04:33;5.10;;;1.40;;
48403;SDS011;34202;52.536;6.042;2023-08-08T09:09:34;5.90;;;1.40;;
48403;SDS011;34202;52.536;6.042;2023-08-08T09:14:38;6.10;;;1.50;;
48403;SDS011;34202;52.536;6.042;2023-08-08T09:19:45;28.00;;;4.30;;
48403;SDS011;34202;52.536;6.042;2023-08-08T09:24:46;12.90;;;1.90;;
48403;SDS011;34202;52.536;6.042;2023-08-08T09:29:47;14.40;;;2.00;;
48403;SDS011;34202;52.536;6.042;2023-08-08T09:34:48;12.40;;;2.60;;
48403;SDS011;34202;52.536;6.042;2023-08-08T09:39:58;7.40;;;1.70;;
48403;SDS011;34202;52.536;6.042;2023-08-08T09:44:59;14.90;;;2.10;;
48403;SDS011;34202;52.536;6.042;2023-08-08T09:50:00;8.90;;;1.30;;
48403;SDS011;34202;52.536;6.042;2023-08-08T09:55:06;6.60;;;1.30;;
48403;SDS011;34202;52.536;6.042;2023-08-08T10:00:07;3.70;;;1.10;;
48403;SDS011;34202;52.536;6.042;2023-08-08T10:05:15;7.40;;;0.90;;
48403;SDS011;34202;52.536;6.042;2023-08-08T10:10:16;6.20;;;1.90;;
48403;SDS011;34202;52.536;6.042;2023-08-08T10:15:18;7.50;;;1.40;;
48403;SDS011;34202;52.536;6.042;2023-08-08T10:20:19;5.60;;;1.00;;
48403;SDS011;34202;52.536;6.042;2023-08-08T10:25:25;5.70;;;1.40;;
48403;SDS011;34202;52.536;6.042;2023-08-08T10:30:27;4.90;;;0.80;;
48403;SDS011;34202;52.536;6.042;2023-08-08T10:35:34;3.90;;;1.00;;
48403;SDS011;34202;52.536;6.042;2023-08-08T10:40:42;2.40;;;1.20;;
48403;SDS011;34202;52.536;6.042;2023-08-08T10:45:43;4.60;;;1.00;;
48403;SDS011;34202;52.536;6.042;2023-08-08T10:50:44;2.90;;;0.60;;
48403;SDS011;34202;52.536;6.042;2023-08-08T10:55:44;1.70;;;0.80;;
48403;SDS011;34202;52.536;6.042;2023-08-08T11:00:45;2.20;;;0.80;;
48403;SDS011;34202;52.536;6.042;2023-08-08T11:05:45;3.60;;;0.80;;
48403;SDS011;34202;52.536;6.042;2023-08-08T11:10:51;7.50;;;1.00;;
48403;SDS011;34202;52.536;6.042;2023-08-08T11:15:53;6.50;;;1.10;;
48403;SDS011;34202;52.536;6.042;2023-08-08T11:20:53;3.00;;;0.90;;
48403;SDS011;34202;52.536;6.042;2023-08-08T11:25:54;1.30;;;0.80;;
48403;SDS011;34202;52.536;6.042;2023-08-08T11:30:55;3.30;;;1.70;;
48403;SDS011;34202;52.536;6.042;2023-08-08T11:35:56;2.40;;;1.00;;
48403;SDS011;34202;52.536;6.042;2023-08-08T11:40:56;4.30;;;0.90;;
48403;SDS011;34202;52.536;6.042;2023-08-08T11:45:59;3.30;;;0.80;;
48403;SDS011;34202;52.536;6.042;2023-08-08T11:51:03;2.30;;;0.90;;
48403;SDS011;34202;52.536;6.042;2023-08-08T11:56:04;5.40;;;0.90;;
48403;SDS011;34202;52.536;6.042;2023-08-08T12:01:05;2.70;;;0.70;;
48403;SDS011;34202;52.536;6.042;2023-08-08T12:06:15;7.10;;;1.80;;
48403;SDS011;34202;52.536;6.042;2023-08-08T12:11:16;4.30;;;1.10;;
48403;SDS011;34202;52.536;6.042;2023-08-08T12:16:17;2.00;;;0.70;;
48403;SDS011;34202;52.536;6.042;2023-08-08T12:21:18;3.80;;;0.90;;
48403;SDS011;34202;52.536;6.042;2023-08-08T12:26:19;4.80;;;1.10;;
48403;SDS011;34202;52.536;6.042;2023-08-08T12:31:20;4.40;;;1.10;;
48403;SDS011;34202;52.536;6.042;2023-08-08T12:36:20;2.70;;;0.70;;
48403;SDS011;34202;52.536;6.042;2023-08-08T12:41:21;1.80;;;0.70;;
48403;SDS011;34202;52.536;6.042;2023-08-08T12:46:22;1.50;;;0.80;;
48403;SDS011;34202;52.536;6.042;2023-08-08T12:51:22;1.20;;;0.60;;
48403;SDS011;34202;52.536;6.042;2023-08-08T12:56:23;4.70;;;1.00;;
48403;SDS011;34202;52.536;6.042;2023-08-08T13:01:23;4.00;;;0.70;;
48403;SDS011;34202;52.536;6.042;2023-08-08T13:06:25;1.70;;;0.90;;
48403;SDS011;34202;52.536;6.042;2023-08-08T13:11:26;4.20;;;1.00;;
48403;SDS011;34202;52.536;6.042;2023-08-08T13:16:27;2.60;;;0.90;;
48403;SDS011;34202;52.536;6.042;2023-08-08T13:21:27;3.90;;;0.70;;
48403;SDS011;34202;52.536;6.042;2023-08-08T13:26:27;3.50;;;0.90;;
48403;SDS011;34202;52.536;6.042;2023-08-08T13:31:28;1.80;;;0.70;;
48403;SDS011;34202;52.536;6.042;2023-08-08T13:36:28;3.30;;;1.30;;
48403;SDS011;34202;52.536;6.042;2023-08-08T13:41:28;6.50;;;0.80;;
48403;SDS011;34202;52.536;6.042;2023-08-08T13:46:29;1.90;;;0.80;;
48403;SDS011;34202;52.536;6.042;2023-08-08T13:51:29;3.00;;;0.80;;
48403;SDS011;34202;52.536;6.042;2023-08-08T13:56:30;5.30;;;1.10;;
48403;SDS011;34202;52.536;6.042;2023-08-08T14:01:30;3.20;;;1.20;;
48403;SDS011;34202;52.536;6.042;2023-08-08T14:06:31;3.30;;;1.10;;
48403;SDS011;34202;52.536;6.042;2023-08-08T14:11:31;3.00;;;0.70;;
48403;SDS011;34202;52.536;6.042;2023-08-08T14:16:32;2.60;;;0.80;;
48403;SDS011;34202;52.536;6.042;2023-08-08T14:21:32;0.60;;;0.40;;
48403;SDS011;34202;52.536;6.042;2023-08-08T14:26:32;2.40;;;1.00;;
48403;SDS011;34202;52.536;6.042;2023-08-08T14:31:33;3.10;;;0.70;;
48403;SDS011;34202;52.536;6.042;2023-08-08T14:36:33;2.90;;;0.90;;
48403;SDS011;34202;52.536;6.042;2023-08-08T14:41:33;6.10;;;1.00;;
48403;SDS011;34202;52.536;6.042;2023-08-08T14:46:34;2.80;;;0.90;;
48403;SDS011;34202;52.536;6.042;2023-08-08T14:51:35;3.50;;;0.50;;
48403;SDS011;34202;52.536;6.042;2023-08-08T14:56:35;5.30;;;1.00;;
48403;SDS011;34202;52.536;6.042;2023-08-08T15:01:36;2.50;;;0.80;;
48403;SDS011;34202;52.536;6.042;2023-08-08T15:06:36;3.80;;;0.90;;
48403;SDS011;34202;52.536;6.042;2023-08-08T15:11:37;3.10;;;1.00;;
48403;SDS011;34202;52.536;6.042;2023-08-08T15:16:38;3.80;;;0.90;;
48403;SDS011;34202;52.536;6.042;2023-08-08T15:21:38;5.10;;;0.90;;
48403;SDS011;34202;52.536;6.042;2023-08-08T15:26:38;1.80;;;0.90;;
48403;SDS011;34202;52.536;6.042;2023-08-08T15:31:39;1.10;;;0.70;;
48403;SDS011;34202;52.536;6.042;2023-08-08T15:36:39;4.00;;;1.00;;
48403;SDS011;34202;52.536;6.042;2023-08-08T15:41:39;4.10;;;1.00;;
48403;SDS011;34202;52.536;6.042;2023-08-08T15:46:40;3.50;;;1.00;;
48403;SDS011;34202;52.536;6.042;2023-08-08T15:51:40;1.90;;;0.90;;
48403;SDS011;34202;52.536;6.042;2023-08-08T15:56:41;5.10;;;0.80;;
48403;SDS011;34202;52.536;6.042;2023-08-08T16:01:42;5.10;;;1.50;;
48403;SDS011;34202;52.536;6.042;2023-08-08T16:06:42;5.10;;;1.50;;
48403;SDS011;34202;52.536;6.042;2023-08-08T16:11:43;3.10;;;0.70;;
48403;SDS011;34202;52.536;6.042;2023-08-08T16:16:43;1.90;;;0.80;;
48403;SDS011;34202;52.536;6.042;2023-08-08T16:21:43;1.30;;;0.70;;
48403;SDS011;34202;52.536;6.042;2023-08-08T16:26:44;2.20;;;1.00;;
48403;SDS011;34202;52.536;6.042;2023-08-08T16:31:44;2.80;;;0.60;;
48403;SDS011;34202;52.536;6.042;2023-08-08T16:36:45;3.30;;;0.70;;
48403;SDS011;34202;52.536;6.042;2023-08-08T16:41:45;1.70;;;0.80;;
48403;SDS011;34202;52.536;6.042;2023-08-08T16:46:46;1.80;;;1.00;;
48403;SDS011;34202;52.536;6.042;2023-08-08T16:51:46;2.20;;;0.70;;
48403;SDS011;34202;52.536;6.042;2023-08-08T16:56:47;0.70;;;0.50;;
48403;SDS011;34202;52.536;6.042;2023-08-08T17:01:48;6.40;;;0.90;;
48403;SDS011;34202;52.536;6.042;2023-08-08T17:06:48;1.00;;;0.80;;
48403;SDS011;34202;52.536;6.042;2023-08-08T17:11:49;1.60;;;0.90;;
48403;SDS011;34202;52.536;6.042;2023-08-08T17:16:50;1.40;;;0.90;;
48403;SDS011;34202;52.536;6.042;2023-08-08T17:21:50;2.90;;;0.70;;
48403;SDS011;34202;52.536;6.042;2023-08-08T17:26:50;2.20;;;0.90;;
48403;SDS011;34202;52.536;6.042;2023-08-08T17:31:51;3.20;;;1.40;;
48403;SDS011;34202;52.536;6.042;2023-08-08T17:36:51;1.80;;;0.80;;
48403;SDS011;34202;52.536;6.042;2023-08-08T17:41:52;4.00;;;1.00;;
48403;SDS011;34202;52.536;6.042;2023-08-08T17:46:52;3.50;;;1.00;;
48403;SDS011;34202;52.536;6.042;2023-08-08T17:51:53;4.00;;;1.30;;
48403;SDS011;34202;52.536;6.042;2023-08-08T17:56:53;1.90;;;0.80;;
48403;SDS011;34202;52.536;6.042;2023-08-08T18:01:54;2.90;;;1.00;;
48403;SDS011;34202;52.536;6.042;2023-08-08T18:06:54;4.20;;;1.20;;
48403;SDS011;34202;52.536;6.042;2023-08-08T18:11:58;5.20;;;1.50;;
48403;SDS011;34202;52.536;6.042;2023-08-08T18:16:58;2.90;;;1.00;;
48403;SDS011;34202;52.536;6.042;2023-08-08T18:21:59;1.50;;;0.80;;
48403;SDS011;34202;52.536;6.042;2023-08-08T18:26:59;2.00;;;0.80;;
48403;SDS011;34202;52.536;6.042;2023-08-08T18:31:59;2.20;;;0.90;;
48403;SDS011;34202;52.536;6.042;2023-08-08T18:37:01;2.00;;;1.40;;
48403;SDS011;34202;52.536;6.042;2023-08-08T18:42:01;2.90;;;1.40;;
48403;SDS011;34202;52.536;6.042;2023-08-08T18:47:01;2.90;;;1.40;;
48403;SDS011;34202;52.536;6.042;2023-08-08T18:52:02;2.50;;;1.30;;
48403;SDS011;34202;52.536;6.042;2023-08-08T18:57:02;3.70;;;1.40;;
48403;SDS011;34202;52.536;6.042;2023-08-08T19:02:03;3.90;;;1.50;;
48403;SDS011;34202;52.536;6.042;2023-08-08T19:07:03;3.20;;;1.30;;
48403;SDS011;34202;52.536;6.042;2023-08-08T19:12:04;5.50;;;1.50;;
48403;SDS011;34202;52.536;6.042;2023-08-08T19:17:04;2.80;;;1.60;;
48403;SDS011;34202;52.536;6.042;2023-08-08T19:22:05;3.50;;;1.70;;
48403;SDS011;34202;52.536;6.042;2023-08-08T19:27:05;3.30;;;1.60;;
48403;SDS011;34202;52.536;6.042;2023-08-08T19:32:06;4.20;;;1.30;;
48403;SDS011;34202;52.536;6.042;2023-08-08T19:37:06;3.60;;;1.80;;
48403;SDS011;34202;52.536;6.042;2023-08-08T19:42:06;5.10;;;1.70;;
48403;SDS011;34202;52.536;6.042;2023-08-08T19:47:07;2.40;;;1.70;;
48403;SDS011;34202;52.536;6.042;2023-08-08T19:52:07;3.20;;;1.40;;
48403;SDS011;34202;52.536;6.042;2023-08-08T19:57:08;4.10;;;1.80;;
48403;SDS011;34202;52.536;6.042;2023-08-08T20:02:08;3.90;;;1.40;;
48403;SDS011;34202;52.536;6.042;2023-08-08T20:07:08;6.00;;;2.70;;
48403;SDS011;34202;52.536;6.042;2023-08-08T20:12:09;2.60;;;1.70;;
48403;SDS011;34202;52.536;6.042;2023-08-08T20:17:09;4.50;;;2.40;;
48403;SDS011;34202;52.536;6.042;2023-08-08T20:22:10;5.40;;;3.70;;
48403;SDS011;34202;52.536;6.042;2023-08-08T20:27:10;5.80;;;3.90;;
48403;SDS011;34202;52.536;6.042;2023-08-08T20:32:10;6.70;;;2.20;;
48403;SDS011;34202;52.536;6.042;2023-08-08T20:37:11;4.80;;;2.00;;
48403;SDS011;34202;52.536;6.042;2023-08-08T20:42:13;7.40;;;3.10;;
48403;SDS011;34202;52.536;6.042;2023-08-08T20:47:13;8.80;;;2.30;;
48403;SDS011;34202;52.536;6.042;2023-08-08T20:52:14;4.00;;;2.40;;
48403;SDS011;34202;52.536;6.042;2023-08-08T20:57:14;8.00;;;2.60;;
48403;SDS011;34202;52.536;6.042;2023-08-08T21:02:14;5.00;;;2.00;;
48403;SDS011;34202;52.536;6.042;2023-08-08T21:07:15;5.90;;;2.30;;
48403;SDS011;34202;52.536;6.042;2023-08-08T21:12:15;7.20;;;3.20;;
48403;SDS011;34202;52.536;6.042;2023-08-08T21:17:16;6.90;;;2.60;;
48403;SDS011;34202;52.536;6.042;2023-08-08T21:22:16;5.60;;;3.00;;
48403;SDS011;34202;52.536;6.042;2023-08-08T21:27:17;4.60;;;2.20;;
48403;SDS011;34202;52.536;6.042;2023-08-08T21:32:18;4.10;;;2.30;;
48403;SDS011;34202;52.536;6.042;2023-08-08T21:37:18;4.40;;;2.10;;
48403;SDS011;34202;52.536;6.042;2023-08-08T21:42:18;5.80;;;2.70;;
48403;SDS011;34202;52.536;6.042;2023-08-08T21:47:19;4.10;;;2.90;;
48403;SDS011;34202;52.536;6.042;2023-08-08T21:52:20;8.20;;;2.70;;
48403;SDS011;34202;52.536;6.042;2023-08-08T21:57:20;7.40;;;2.40;;
48403;SDS011;34202;52.536;6.042;2023-08-08T22:02:21;7.00;;;3.30;;
48403;SDS011;34202;52.536;6.042;2023-08-08T22:07:21;5.50;;;3.00;;
48403;SDS011;34202;52.536;6.042;2023-08-08T22:12:22;7.50;;;3.40;;
48403;SDS011;34202;52.536;6.042;2023-08-08T22:17:22;5.50;;;3.50;;
48403;SDS011;34202;52.536;6.042;2023-08-08T22:22:23;3.60;;;3.30;;
48403;SDS011;34202;52.536;6.042;2023-08-08T22:27:23;5.70;;;3.50;;
48403;SDS011;34202;52.536;6.042;2023-08-08T22:32:24;5.60;;;3.80;;
48403;SDS011;34202;52.536;6.042;2023-08-08T22:37:24;5.50;;;3.80;;
48403;SDS011;34202;52.536;6.042;2023-08-08T22:42:24;9.60;;;4.20;;
48403;SDS011;34202;52.536;6.042;2023-08-08T22:47:25;7.30;;;4.70;;
48403;SDS011;34202;52.536;6.042;2023-08-08T22:52:25;8.30;;;4.80;;
48403;SDS011;34202;52.536;6.042;2023-08-08T22:57:26;7.20;;;4.80;;
48403;SDS011;34202;52.536;6.042;2023-08-08T23:02:26;5.70;;;4.20;;
48403;SDS011;34202;52.536;6.042;2023-08-08T23:07:26;6.80;;;4.50;;
48403;SDS011;34202;52.536;6.042;2023-08-08T23:12:27;8.10;;;5.20;;
48403;SDS011;34202;52.536;6.042;2023-08-08T23:17:27;6.80;;;4.50;;
48403;SDS011;34202;52.536;6.042;2023-08-08T23:22:28;6.20;;;4.50;;
48403;SDS011;34202;52.536;6.042;2023-08-08T23:27:28;5.50;;;5.00;;
48403;SDS011;34202;52.536;6.042;2023-08-08T23:32:29;7.00;;;5.80;;
48403;SDS011;34202;52.536;6.042;2023-08-08T23:37:30;9.50;;;6.50;;
48403;SDS011;34202;52.536;6.042;2023-08-08T23:42:30;11.20;;;5.30;;
48403;SDS011;34202;52.536;6.042;2023-08-08T23:47:31;10.10;;;6.80;;
48403;SDS011;34202;52.536;6.042;2023-08-08T23:52:32;8.50;;;6.50;;
48403;SDS011;34202;52.536;6.042;2023-08-08T23:57:32;8.00;;;6.40;;
